sensor_id;sensor_type;location;lat;lon;timestamp;temperature;humidity
20672;DHT22;10495;50.922;4.760;2022-07-29T00:01:16;21.10;52.40
20672;DHT22;10495;50.922;4.760;2022-07-29T00:03:42;21.00;52.80
20672;DHT22;10495;50.922;4.760;2022-07-29T00:06:08;20.90;52.90
20672;DHT22;10495;50.922;4.760;2022-07-29T00:08:33;20.90;53.20
20672;DHT22;10495;50.922;4.760;2022-07-29T00:10:59;20.80;53.30
20672;DHT22;10495;50.922;4.760;2022-07-29T00:13:25;20.70;53.40
20672;DHT22;10495;50.922;4.760;2022-07-29T00:15:50;20.60;53.80
20672;DHT22;10495;50.922;4.760;2022-07-29T00:18:16;20.50;54.00
20672;DHT22;10495;50.922;4.760;2022-07-29T00:20:41;20.50;54.20
20672;DHT22;10495;50.922;4.760;2022-07-29T00:23:07;20.50;54.20
20672;DHT22;10495;50.922;4.760;2022-07-29T00:25:33;20.40;54.10
20672;DHT22;10495;50.922;4.760;2022-07-29T00:27:58;20.40;54.00
20672;DHT22;10495;50.922;4.760;2022-07-29T00:30:24;20.30;54.00
20672;DHT22;10495;50.922;4.760;2022-07-29T00:32:49;20.30;54.10
20672;DHT22;10495;50.922;4.760;2022-07-29T00:35:15;20.30;54.00
20672;DHT22;10495;50.922;4.760;2022-07-29T00:37:59;20.30;53.90
20672;DHT22;10495;50.922;4.760;2022-07-29T00:40:25;20.30;53.90
20672;DHT22;10495;50.922;4.760;2022-07-29T00:42:51;20.30;53.80
20672;DHT22;10495;50.922;4.760;2022-07-29T00:45:18;20.30;53.80
20672;DHT22;10495;50.922;4.760;2022-07-29T00:47:44;20.30;53.80
20672;DHT22;10495;50.922;4.760;2022-07-29T00:50:11;20.30;53.70
20672;DHT22;10495;50.922;4.760;2022-07-29T00:52:38;20.20;53.50
20672;DHT22;10495;50.922;4.760;2022-07-29T00:55:06;20.20;53.40
20672;DHT22;10495;50.922;4.760;2022-07-29T00:57:33;20.10;53.30
20672;DHT22;10495;50.922;4.760;2022-07-29T00:59:58;20.00;53.40
20672;DHT22;10495;50.922;4.760;2022-07-29T01:02:24;19.90;53.70
20672;DHT22;10495;50.922;4.760;2022-07-29T01:04:50;19.90;53.90
20672;DHT22;10495;50.922;4.760;2022-07-29T01:07:17;19.90;53.90
20672;DHT22;10495;50.922;4.760;2022-07-29T01:09:44;19.90;54.00
20672;DHT22;10495;50.922;4.760;2022-07-29T01:12:12;19.90;54.00
20672;DHT22;10495;50.922;4.760;2022-07-29T01:14:39;19.90;54.00
20672;DHT22;10495;50.922;4.760;2022-07-29T01:29:44;19.90;54.00
20672;DHT22;10495;50.922;4.760;2022-07-29T01:32:12;19.80;54.00
20672;DHT22;10495;50.922;4.760;2022-07-29T01:34:52;19.80;54.30
20672;DHT22;10495;50.922;4.760;2022-07-29T01:37:22;19.80;54.20
20672;DHT22;10495;50.922;4.760;2022-07-29T01:39:51;19.80;54.20
20672;DHT22;10495;50.922;4.760;2022-07-29T01:42:52;19.80;54.20
20672;DHT22;10495;50.922;4.760;2022-07-29T01:45:30;19.80;54.10
20672;DHT22;10495;50.922;4.760;2022-07-29T01:48:06;19.80;54.20
20672;DHT22;10495;50.922;4.760;2022-07-29T01:50:48;19.70;54.30
20672;DHT22;10495;50.922;4.760;2022-07-29T01:53:21;19.70;54.30
20672;DHT22;10495;50.922;4.760;2022-07-29T01:55:49;19.60;54.40
20672;DHT22;10495;50.922;4.760;2022-07-29T01:58:17;19.60;54.50
20672;DHT22;10495;50.922;4.760;2022-07-29T02:00:45;19.50;54.50
20672;DHT22;10495;50.922;4.760;2022-07-29T02:03:12;19.50;54.60
20672;DHT22;10495;50.922;4.760;2022-07-29T02:05:41;19.50;54.70
20672;DHT22;10495;50.922;4.760;2022-07-29T02:08:08;19.50;54.80
20672;DHT22;10495;50.922;4.760;2022-07-29T02:10:35;19.50;54.80
20672;DHT22;10495;50.922;4.760;2022-07-29T02:13:03;19.50;54.90
20672;DHT22;10495;50.922;4.760;2022-07-29T02:15:32;19.40;54.90
20672;DHT22;10495;50.922;4.760;2022-07-29T02:18:09;19.40;55.20
20672;DHT22;10495;50.922;4.760;2022-07-29T02:20:38;19.40;55.40
20672;DHT22;10495;50.922;4.760;2022-07-29T02:23:04;19.30;55.60
20672;DHT22;10495;50.922;4.760;2022-07-29T02:25:32;19.30;55.70
20672;DHT22;10495;50.922;4.760;2022-07-29T02:27:58;19.20;55.80
20672;DHT22;10495;50.922;4.760;2022-07-29T02:30:27;19.10;56.20
20672;DHT22;10495;50.922;4.760;2022-07-29T02:32:54;19.00;56.50
20672;DHT22;10495;50.922;4.760;2022-07-29T02:35:21;18.90;56.70
20672;DHT22;10495;50.922;4.760;2022-07-29T02:37:48;18.80;56.80
20672;DHT22;10495;50.922;4.760;2022-07-29T02:40:37;18.60;57.00
20672;DHT22;10495;50.922;4.760;2022-07-29T02:43:05;18.60;57.10
20672;DHT22;10495;50.922;4.760;2022-07-29T02:45:32;18.60;57.00
20672;DHT22;10495;50.922;4.760;2022-07-29T02:48:00;18.60;57.00
20672;DHT22;10495;50.922;4.760;2022-07-29T02:50:34;18.60;57.00
20672;DHT22;10495;50.922;4.760;2022-07-29T02:53:14;18.60;56.90
20672;DHT22;10495;50.922;4.760;2022-07-29T02:55:45;18.60;56.90
20672;DHT22;10495;50.922;4.760;2022-07-29T02:58:30;18.60;56.80
20672;DHT22;10495;50.922;4.760;2022-07-29T03:01:01;18.60;56.70
20672;DHT22;10495;50.922;4.760;2022-07-29T03:03:31;18.50;56.80
20672;DHT22;10495;50.922;4.760;2022-07-29T03:05:58;18.50;56.80
20672;DHT22;10495;50.922;4.760;2022-07-29T03:08:26;18.40;56.80
20672;DHT22;10495;50.922;4.760;2022-07-29T03:10:53;18.40;56.80
20672;DHT22;10495;50.922;4.760;2022-07-29T03:13:19;18.30;56.80
20672;DHT22;10495;50.922;4.760;2022-07-29T03:15:45;18.20;57.00
20672;DHT22;10495;50.922;4.760;2022-07-29T03:18:12;18.10;57.00
20672;DHT22;10495;50.922;4.760;2022-07-29T03:20:39;18.10;57.10
20672;DHT22;10495;50.922;4.760;2022-07-29T03:23:05;18.00;57.20
20672;DHT22;10495;50.922;4.760;2022-07-29T03:25:31;18.00;57.20
20672;DHT22;10495;50.922;4.760;2022-07-29T03:27:56;18.00;57.40
20672;DHT22;10495;50.922;4.760;2022-07-29T03:30:22;17.80;57.60
20672;DHT22;10495;50.922;4.760;2022-07-29T03:32:49;17.80;57.60
20672;DHT22;10495;50.922;4.760;2022-07-29T03:35:15;17.80;57.60
20672;DHT22;10495;50.922;4.760;2022-07-29T03:37:44;17.70;57.50
20672;DHT22;10495;50.922;4.760;2022-07-29T03:40:13;17.70;57.50
20672;DHT22;10495;50.922;4.760;2022-07-29T03:42:41;17.70;57.60
20672;DHT22;10495;50.922;4.760;2022-07-29T03:45:12;17.60;57.70
20672;DHT22;10495;50.922;4.760;2022-07-29T03:47:42;17.50;57.80
20672;DHT22;10495;50.922;4.760;2022-07-29T03:50:11;17.50;57.90
20672;DHT22;10495;50.922;4.760;2022-07-29T03:52:40;17.50;57.90
20672;DHT22;10495;50.922;4.760;2022-07-29T03:55:06;17.50;57.90
20672;DHT22;10495;50.922;4.760;2022-07-29T03:57:33;17.50;57.90
20672;DHT22;10495;50.922;4.760;2022-07-29T04:00:02;17.50;58.00
20672;DHT22;10495;50.922;4.760;2022-07-29T04:02:29;17.40;57.90
20672;DHT22;10495;50.922;4.760;2022-07-29T04:04:54;17.40;57.90
20672;DHT22;10495;50.922;4.760;2022-07-29T04:07:20;17.40;57.90
20672;DHT22;10495;50.922;4.760;2022-07-29T04:09:46;17.40;57.90
20672;DHT22;10495;50.922;4.760;2022-07-29T04:12:11;17.40;58.00
20672;DHT22;10495;50.922;4.760;2022-07-29T04:14:37;17.30;58.00
20672;DHT22;10495;50.922;4.760;2022-07-29T04:17:04;17.30;58.00
20672;DHT22;10495;50.922;4.760;2022-07-29T04:19:30;17.30;58.00
20672;DHT22;10495;50.922;4.760;2022-07-29T04:21:57;17.30;58.10
20672;DHT22;10495;50.922;4.760;2022-07-29T04:24:23;17.30;58.10
20672;DHT22;10495;50.922;4.760;2022-07-29T04:26:49;17.20;58.20
20672;DHT22;10495;50.922;4.760;2022-07-29T04:29:15;17.20;58.30
20672;DHT22;10495;50.922;4.760;2022-07-29T04:31:41;17.20;58.30
20672;DHT22;10495;50.922;4.760;2022-07-29T04:34:07;17.30;58.30
20672;DHT22;10495;50.922;4.760;2022-07-29T04:36:32;17.30;58.40
20672;DHT22;10495;50.922;4.760;2022-07-29T04:38:58;17.20;58.40
20672;DHT22;10495;50.922;4.760;2022-07-29T04:41:24;17.20;58.60
20672;DHT22;10495;50.922;4.760;2022-07-29T04:43:50;17.20;58.50
20672;DHT22;10495;50.922;4.760;2022-07-29T04:46:15;17.20;58.90
20672;DHT22;10495;50.922;4.760;2022-07-29T04:48:41;17.10;59.10
20672;DHT22;10495;50.922;4.760;2022-07-29T04:51:07;17.10;59.20
20672;DHT22;10495;50.922;4.760;2022-07-29T04:53:32;17.10;59.30
20672;DHT22;10495;50.922;4.760;2022-07-29T04:55:58;17.10;59.50
20672;DHT22;10495;50.922;4.760;2022-07-29T04:58:24;17.10;59.60
20672;DHT22;10495;50.922;4.760;2022-07-29T05:00:50;17.10;59.60
20672;DHT22;10495;50.922;4.760;2022-07-29T05:03:16;17.10;59.60
20672;DHT22;10495;50.922;4.760;2022-07-29T05:05:42;17.20;59.80
20672;DHT22;10495;50.922;4.760;2022-07-29T05:08:08;17.20;59.90
20672;DHT22;10495;50.922;4.760;2022-07-29T05:10:34;17.30;60.20
20672;DHT22;10495;50.922;4.760;2022-07-29T05:13:06;17.40;60.40
20672;DHT22;10495;50.922;4.760;2022-07-29T05:15:34;17.50;60.20
20672;DHT22;10495;50.922;4.760;2022-07-29T05:18:00;17.60;60.20
20672;DHT22;10495;50.922;4.760;2022-07-29T05:20:26;17.60;60.60
20672;DHT22;10495;50.922;4.760;2022-07-29T05:22:55;17.70;60.60
20672;DHT22;10495;50.922;4.760;2022-07-29T05:25:21;17.70;60.90
20672;DHT22;10495;50.922;4.760;2022-07-29T05:27:46;17.80;61.20
20672;DHT22;10495;50.922;4.760;2022-07-29T05:30:13;18.00;61.70
20672;DHT22;10495;50.922;4.760;2022-07-29T05:32:38;18.30;61.90
20672;DHT22;10495;50.922;4.760;2022-07-29T05:35:04;18.70;61.10
20672;DHT22;10495;50.922;4.760;2022-07-29T05:37:30;19.20;59.80
20672;DHT22;10495;50.922;4.760;2022-07-29T05:39:56;19.70;59.30
20672;DHT22;10495;50.922;4.760;2022-07-29T05:42:21;20.20;58.60
20672;DHT22;10495;50.922;4.760;2022-07-29T05:44:47;20.70;57.70
20672;DHT22;10495;50.922;4.760;2022-07-29T05:47:13;21.00;56.30
20672;DHT22;10495;50.922;4.760;2022-07-29T05:49:39;21.30;55.90
20672;DHT22;10495;50.922;4.760;2022-07-29T05:52:04;21.60;55.40
20672;DHT22;10495;50.922;4.760;2022-07-29T05:54:30;22.00;54.90
20672;DHT22;10495;50.922;4.760;2022-07-29T05:56:56;22.30;55.20
20672;DHT22;10495;50.922;4.760;2022-07-29T05:59:21;22.70;53.90
20672;DHT22;10495;50.922;4.760;2022-07-29T06:01:47;22.80;53.70
20672;DHT22;10495;50.922;4.760;2022-07-29T06:04:12;23.20;53.20
20672;DHT22;10495;50.922;4.760;2022-07-29T06:06:38;23.00;52.70
20672;DHT22;10495;50.922;4.760;2022-07-29T06:09:04;23.20;53.10
20672;DHT22;10495;50.922;4.760;2022-07-29T06:11:29;23.40;52.40
20672;DHT22;10495;50.922;4.760;2022-07-29T06:13:55;23.20;52.40
20672;DHT22;10495;50.922;4.760;2022-07-29T06:16:21;23.80;52.70
20672;DHT22;10495;50.922;4.760;2022-07-29T06:18:46;24.50;52.70
20672;DHT22;10495;50.922;4.760;2022-07-29T06:21:12;24.90;51.90
20672;DHT22;10495;50.922;4.760;2022-07-29T06:23:38;25.10;51.30
20672;DHT22;10495;50.922;4.760;2022-07-29T06:26:05;25.40;51.00
20672;DHT22;10495;50.922;4.760;2022-07-29T06:28:31;25.90;50.90
20672;DHT22;10495;50.922;4.760;2022-07-29T06:30:57;26.40;50.50
20672;DHT22;10495;50.922;4.760;2022-07-29T06:33:23;26.80;49.50
20672;DHT22;10495;50.922;4.760;2022-07-29T06:35:49;26.70;49.60
20672;DHT22;10495;50.922;4.760;2022-07-29T06:38:15;26.50;49.70
20672;DHT22;10495;50.922;4.760;2022-07-29T06:40:45;26.40;49.60
20672;DHT22;10495;50.922;4.760;2022-07-29T06:43:27;26.70;49.70
20672;DHT22;10495;50.922;4.760;2022-07-29T06:45:54;26.80;49.00
20672;DHT22;10495;50.922;4.760;2022-07-29T06:48:20;26.90;48.90
20672;DHT22;10495;50.922;4.760;2022-07-29T06:50:45;27.20;49.10
20672;DHT22;10495;50.922;4.760;2022-07-29T06:53:11;27.10;48.60
20672;DHT22;10495;50.922;4.760;2022-07-29T06:55:36;27.30;48.60
20672;DHT22;10495;50.922;4.760;2022-07-29T06:58:02;27.20;48.60
20672;DHT22;10495;50.922;4.760;2022-07-29T07:00:29;27.40;47.90
20672;DHT22;10495;50.922;4.760;2022-07-29T07:02:54;27.40;48.20
20672;DHT22;10495;50.922;4.760;2022-07-29T07:05:20;27.60;48.50
20672;DHT22;10495;50.922;4.760;2022-07-29T07:07:45;27.80;48.50
20672;DHT22;10495;50.922;4.760;2022-07-29T07:10:11;28.10;48.60
20672;DHT22;10495;50.922;4.760;2022-07-29T07:12:37;28.10;48.80
20672;DHT22;10495;50.922;4.760;2022-07-29T07:15:02;28.20;48.60
20672;DHT22;10495;50.922;4.760;2022-07-29T07:17:28;28.50;48.50
20672;DHT22;10495;50.922;4.760;2022-07-29T07:19:54;28.60;48.20
20672;DHT22;10495;50.922;4.760;2022-07-29T07:22:19;28.30;47.50
20672;DHT22;10495;50.922;4.760;2022-07-29T07:24:45;28.40;48.00
20672;DHT22;10495;50.922;4.760;2022-07-29T07:27:11;28.20;47.90
20672;DHT22;10495;50.922;4.760;2022-07-29T07:29:36;28.30;48.20
20672;DHT22;10495;50.922;4.760;2022-07-29T07:32:02;28.50;48.20
20672;DHT22;10495;50.922;4.760;2022-07-29T07:34:28;28.60;48.40
20672;DHT22;10495;50.922;4.760;2022-07-29T07:36:55;28.40;48.40
20672;DHT22;10495;50.922;4.760;2022-07-29T07:39:20;28.60;48.70
20672;DHT22;10495;50.922;4.760;2022-07-29T07:41:46;29.00;48.50
20672;DHT22;10495;50.922;4.760;2022-07-29T07:44:12;29.00;48.20
20672;DHT22;10495;50.922;4.760;2022-07-29T07:46:37;28.80;48.40
20672;DHT22;10495;50.922;4.760;2022-07-29T07:49:03;28.90;48.60
20672;DHT22;10495;50.922;4.760;2022-07-29T07:51:28;29.10;48.50
20672;DHT22;10495;50.922;4.760;2022-07-29T07:53:54;29.60;48.60
20672;DHT22;10495;50.922;4.760;2022-07-29T07:56:20;29.60;47.50
20672;DHT22;10495;50.922;4.760;2022-07-29T07:58:45;29.40;47.60
20672;DHT22;10495;50.922;4.760;2022-07-29T08:01:11;29.10;47.70
20672;DHT22;10495;50.922;4.760;2022-07-29T08:03:37;29.10;47.80
20672;DHT22;10495;50.922;4.760;2022-07-29T08:06:04;28.80;47.60
20672;DHT22;10495;50.922;4.760;2022-07-29T08:08:30;29.00;47.80
20672;DHT22;10495;50.922;4.760;2022-07-29T08:10:55;29.20;47.90
20672;DHT22;10495;50.922;4.760;2022-07-29T08:13:23;29.20;47.10
20672;DHT22;10495;50.922;4.760;2022-07-29T08:15:51;29.60;48.10
20672;DHT22;10495;50.922;4.760;2022-07-29T08:18:30;29.50;47.30
20672;DHT22;10495;50.922;4.760;2022-07-29T08:20:56;29.60;48.20
20672;DHT22;10495;50.922;4.760;2022-07-29T08:23:22;30.00;47.70
20672;DHT22;10495;50.922;4.760;2022-07-29T08:25:49;30.00;47.70
20672;DHT22;10495;50.922;4.760;2022-07-29T08:28:14;30.30;48.80
20672;DHT22;10495;50.922;4.760;2022-07-29T08:30:40;30.20;47.70
20672;DHT22;10495;50.922;4.760;2022-07-29T08:33:06;30.70;47.50
20672;DHT22;10495;50.922;4.760;2022-07-29T08:35:31;30.80;48.00
20672;DHT22;10495;50.922;4.760;2022-07-29T08:37:57;31.10;47.80
20672;DHT22;10495;50.922;4.760;2022-07-29T08:40:24;31.30;47.40
20672;DHT22;10495;50.922;4.760;2022-07-29T08:42:50;31.60;47.50
20672;DHT22;10495;50.922;4.760;2022-07-29T08:45:16;31.80;47.40
20672;DHT22;10495;50.922;4.760;2022-07-29T08:47:44;31.40;46.30
20672;DHT22;10495;50.922;4.760;2022-07-29T08:50:10;31.70;46.10
20672;DHT22;10495;50.922;4.760;2022-07-29T08:52:39;32.00;46.70
20672;DHT22;10495;50.922;4.760;2022-07-29T08:55:06;32.30;45.80
20672;DHT22;10495;50.922;4.760;2022-07-29T08:57:34;32.20;46.20
20672;DHT22;10495;50.922;4.760;2022-07-29T09:00:09;31.70;46.00
20672;DHT22;10495;50.922;4.760;2022-07-29T09:02:39;31.80;46.50
20672;DHT22;10495;50.922;4.760;2022-07-29T09:05:06;32.00;45.90
20672;DHT22;10495;50.922;4.760;2022-07-29T09:07:32;31.80;45.90
20672;DHT22;10495;50.922;4.760;2022-07-29T09:09:58;31.90;46.70
20672;DHT22;10495;50.922;4.760;2022-07-29T09:12:24;32.10;47.00
20672;DHT22;10495;50.922;4.760;2022-07-29T09:14:51;32.70;47.30
20672;DHT22;10495;50.922;4.760;2022-07-29T09:17:17;32.90;46.30
20672;DHT22;10495;50.922;4.760;2022-07-29T09:19:43;32.80;46.10
20672;DHT22;10495;50.922;4.760;2022-07-29T09:22:09;33.20;44.90
20672;DHT22;10495;50.922;4.760;2022-07-29T09:24:40;32.90;45.40
20672;DHT22;10495;50.922;4.760;2022-07-29T09:29:36;32.00;45.30
20672;DHT22;10495;50.922;4.760;2022-07-29T09:32:06;32.10;45.70
20672;DHT22;10495;50.922;4.760;2022-07-29T09:34:33;31.90;45.60
20672;DHT22;10495;50.922;4.760;2022-07-29T09:36:58;32.20;45.30
20672;DHT22;10495;50.922;4.760;2022-07-29T09:39:38;32.20;45.70
20672;DHT22;10495;50.922;4.760;2022-07-29T09:42:11;32.40;45.10
20672;DHT22;10495;50.922;4.760;2022-07-29T09:44:41;32.90;45.00
20672;DHT22;10495;50.922;4.760;2022-07-29T09:47:07;33.00;45.10
20672;DHT22;10495;50.922;4.760;2022-07-29T09:49:54;32.70;45.10
20672;DHT22;10495;50.922;4.760;2022-07-29T09:52:20;33.10;45.20
20672;DHT22;10495;50.922;4.760;2022-07-29T09:54:46;33.30;44.70
20672;DHT22;10495;50.922;4.760;2022-07-29T09:57:28;33.40;44.70
20672;DHT22;10495;50.922;4.760;2022-07-29T10:00:15;33.20;44.30
20672;DHT22;10495;50.922;4.760;2022-07-29T10:02:43;32.80;44.50
20672;DHT22;10495;50.922;4.760;2022-07-29T10:05:26;33.10;44.80
20672;DHT22;10495;50.922;4.760;2022-07-29T10:07:56;32.50;44.40
20672;DHT22;10495;50.922;4.760;2022-07-29T10:10:30;32.70;44.90
20672;DHT22;10495;50.922;4.760;2022-07-29T10:13:01;32.70;44.40
20672;DHT22;10495;50.922;4.760;2022-07-29T10:15:30;32.40;44.30
20672;DHT22;10495;50.922;4.760;2022-07-29T10:17:58;32.70;44.60
20672;DHT22;10495;50.922;4.760;2022-07-29T10:20:25;32.70;44.90
20672;DHT22;10495;50.922;4.760;2022-07-29T10:22:51;33.00;44.60
20672;DHT22;10495;50.922;4.760;2022-07-29T10:25:18;33.00;43.80
20672;DHT22;10495;50.922;4.760;2022-07-29T10:27:47;32.70;44.80
20672;DHT22;10495;50.922;4.760;2022-07-29T10:30:15;33.00;45.30
20672;DHT22;10495;50.922;4.760;2022-07-29T10:38:42;31.20;45.80
20672;DHT22;10495;50.922;4.760;2022-07-29T10:41:35;31.10;45.00
20672;DHT22;10495;50.922;4.760;2022-07-29T10:44:17;30.90;45.00
20672;DHT22;10495;50.922;4.760;2022-07-29T10:46:44;30.40;45.90
20672;DHT22;10495;50.922;4.760;2022-07-29T10:49:22;30.10;45.70
20672;DHT22;10495;50.922;4.760;2022-07-29T10:59:42;28.60;46.90
20672;DHT22;10495;50.922;4.760;2022-07-29T11:05:06;28.20;46.50
20672;DHT22;10495;50.922;4.760;2022-07-29T11:07:34;28.00;46.60
20672;DHT22;10495;50.922;4.760;2022-07-29T11:15:07;28.30;47.70
20672;DHT22;10495;50.922;4.760;2022-07-29T11:23:00;28.10;46.30
20672;DHT22;10495;50.922;4.760;2022-07-29T11:25:26;27.90;47.50
20672;DHT22;10495;50.922;4.760;2022-07-29T11:27:54;28.10;47.40
20672;DHT22;10495;50.922;4.760;2022-07-29T11:30:20;28.00;46.90
20672;DHT22;10495;50.922;4.760;2022-07-29T11:32:46;27.50;47.10
20672;DHT22;10495;50.922;4.760;2022-07-29T11:35:18;27.60;46.40
20672;DHT22;10495;50.922;4.760;2022-07-29T11:37:46;27.60;46.90
20672;DHT22;10495;50.922;4.760;2022-07-29T11:40:13;27.90;47.70
20672;DHT22;10495;50.922;4.760;2022-07-29T11:42:40;28.20;46.20
20672;DHT22;10495;50.922;4.760;2022-07-29T11:45:13;27.80;46.00
20672;DHT22;10495;50.922;4.760;2022-07-29T11:47:48;27.50;46.10
20672;DHT22;10495;50.922;4.760;2022-07-29T11:52:58;27.70;45.60
20672;DHT22;10495;50.922;4.760;2022-07-29T11:55:24;27.90;46.10
20672;DHT22;10495;50.922;4.760;2022-07-29T11:57:55;28.20;46.40
20672;DHT22;10495;50.922;4.760;2022-07-29T12:00:30;28.20;46.70
20672;DHT22;10495;50.922;4.760;2022-07-29T12:02:57;28.10;46.20
20672;DHT22;10495;50.922;4.760;2022-07-29T12:05:32;28.30;45.90
20672;DHT22;10495;50.922;4.760;2022-07-29T12:08:05;28.00;45.30
20672;DHT22;10495;50.922;4.760;2022-07-29T12:10:31;27.80;45.50
20672;DHT22;10495;50.922;4.760;2022-07-29T12:12:56;28.20;45.00
20672;DHT22;10495;50.922;4.760;2022-07-29T12:15:22;28.50;44.50
20672;DHT22;10495;50.922;4.760;2022-07-29T12:17:49;28.50;45.10
20672;DHT22;10495;50.922;4.760;2022-07-29T12:20:23;28.10;45.20
20672;DHT22;10495;50.922;4.760;2022-07-29T12:22:49;27.90;45.20
20672;DHT22;10495;50.922;4.760;2022-07-29T12:25:14;28.00;45.80
20672;DHT22;10495;50.922;4.760;2022-07-29T12:27:43;28.20;45.20
20672;DHT22;10495;50.922;4.760;2022-07-29T12:30:14;28.20;45.30
20672;DHT22;10495;50.922;4.760;2022-07-29T12:32:47;28.10;46.00
20672;DHT22;10495;50.922;4.760;2022-07-29T12:35:18;28.30;45.40
20672;DHT22;10495;50.922;4.760;2022-07-29T12:37:47;28.40;45.80
20672;DHT22;10495;50.922;4.760;2022-07-29T12:40:15;28.00;45.60
20672;DHT22;10495;50.922;4.760;2022-07-29T12:43:05;27.80;45.60
20672;DHT22;10495;50.922;4.760;2022-07-29T12:45:31;27.80;45.30
20672;DHT22;10495;50.922;4.760;2022-07-29T12:47:57;28.30;44.90
20672;DHT22;10495;50.922;4.760;2022-07-29T12:50:23;28.50;44.90
20672;DHT22;10495;50.922;4.760;2022-07-29T12:52:49;28.30;44.80
20672;DHT22;10495;50.922;4.760;2022-07-29T12:55:15;27.90;44.80
20672;DHT22;10495;50.922;4.760;2022-07-29T12:57:50;28.00;45.10
20672;DHT22;10495;50.922;4.760;2022-07-29T13:00:22;28.20;44.80
20672;DHT22;10495;50.922;4.760;2022-07-29T13:02:56;28.10;45.30
20672;DHT22;10495;50.922;4.760;2022-07-29T13:05:22;28.30;45.20
20672;DHT22;10495;50.922;4.760;2022-07-29T13:07:48;28.70;45.50
20672;DHT22;10495;50.922;4.760;2022-07-29T13:10:20;28.80;45.10
20672;DHT22;10495;50.922;4.760;2022-07-29T13:13:24;28.90;44.90
20672;DHT22;10495;50.922;4.760;2022-07-29T13:16:06;28.70;45.30
20672;DHT22;10495;50.922;4.760;2022-07-29T13:18:34;28.70;45.40
20672;DHT22;10495;50.922;4.760;2022-07-29T13:21:16;28.70;44.30
20672;DHT22;10495;50.922;4.760;2022-07-29T13:23:42;28.10;45.10
20672;DHT22;10495;50.922;4.760;2022-07-29T13:26:09;28.00;45.40
20672;DHT22;10495;50.922;4.760;2022-07-29T13:28:35;28.10;45.10
20672;DHT22;10495;50.922;4.760;2022-07-29T13:31:01;27.80;45.00
20672;DHT22;10495;50.922;4.760;2022-07-29T13:33:27;28.00;45.20
20672;DHT22;10495;50.922;4.760;2022-07-29T13:35:52;28.00;44.80
20672;DHT22;10495;50.922;4.760;2022-07-29T13:38:18;27.90;44.90
20672;DHT22;10495;50.922;4.760;2022-07-29T13:40:44;28.00;45.40
20672;DHT22;10495;50.922;4.760;2022-07-29T13:43:10;28.20;45.60
20672;DHT22;10495;50.922;4.760;2022-07-29T13:45:36;27.90;44.50
20672;DHT22;10495;50.922;4.760;2022-07-29T13:48:02;27.70;44.30
20672;DHT22;10495;50.922;4.760;2022-07-29T13:50:27;27.70;44.30
20672;DHT22;10495;50.922;4.760;2022-07-29T13:52:53;28.00;44.60
20672;DHT22;10495;50.922;4.760;2022-07-29T13:55:19;27.90;44.40
20672;DHT22;10495;50.922;4.760;2022-07-29T13:57:45;28.10;44.30
20672;DHT22;10495;50.922;4.760;2022-07-29T14:00:11;28.30;44.60
20672;DHT22;10495;50.922;4.760;2022-07-29T14:02:37;28.10;44.30
20672;DHT22;10495;50.922;4.760;2022-07-29T14:05:04;27.90;44.90
20672;DHT22;10495;50.922;4.760;2022-07-29T14:07:30;27.80;45.30
20672;DHT22;10495;50.922;4.760;2022-07-29T14:09:56;27.50;45.00
20672;DHT22;10495;50.922;4.760;2022-07-29T14:12:22;27.50;44.70
20672;DHT22;10495;50.922;4.760;2022-07-29T14:14:48;27.70;45.30
20672;DHT22;10495;50.922;4.760;2022-07-29T14:17:14;27.80;45.20
20672;DHT22;10495;50.922;4.760;2022-07-29T14:19:40;27.90;45.20
20672;DHT22;10495;50.922;4.760;2022-07-29T14:22:07;28.00;45.10
20672;DHT22;10495;50.922;4.760;2022-07-29T14:24:34;27.90;44.90
20672;DHT22;10495;50.922;4.760;2022-07-29T14:27:00;27.90;44.80
20672;DHT22;10495;50.922;4.760;2022-07-29T14:29:25;27.70;44.80
20672;DHT22;10495;50.922;4.760;2022-07-29T14:31:51;27.50;45.50
20672;DHT22;10495;50.922;4.760;2022-07-29T14:34:16;27.70;45.00
20672;DHT22;10495;50.922;4.760;2022-07-29T14:36:42;27.90;45.80
20672;DHT22;10495;50.922;4.760;2022-07-29T14:39:08;27.70;45.70
20672;DHT22;10495;50.922;4.760;2022-07-29T14:41:34;27.80;46.30
20672;DHT22;10495;50.922;4.760;2022-07-29T14:43:59;28.00;46.70
20672;DHT22;10495;50.922;4.760;2022-07-29T14:46:26;28.20;46.20
20672;DHT22;10495;50.922;4.760;2022-07-29T14:48:52;28.20;45.90
20672;DHT22;10495;50.922;4.760;2022-07-29T14:51:18;28.10;45.80
20672;DHT22;10495;50.922;4.760;2022-07-29T14:53:43;27.90;45.60
20672;DHT22;10495;50.922;4.760;2022-07-29T14:56:09;27.90;45.60
20672;DHT22;10495;50.922;4.760;2022-07-29T14:58:35;27.80;45.80
20672;DHT22;10495;50.922;4.760;2022-07-29T15:01:00;27.80;46.10
20672;DHT22;10495;50.922;4.760;2022-07-29T15:03:26;27.90;46.40
20672;DHT22;10495;50.922;4.760;2022-07-29T15:05:53;27.80;45.90
20672;DHT22;10495;50.922;4.760;2022-07-29T15:08:19;27.80;46.50
20672;DHT22;10495;50.922;4.760;2022-07-29T15:10:45;27.80;45.60
20672;DHT22;10495;50.922;4.760;2022-07-29T15:13:11;27.90;46.20
20672;DHT22;10495;50.922;4.760;2022-07-29T15:15:38;28.10;46.40
20672;DHT22;10495;50.922;4.760;2022-07-29T15:18:04;28.00;45.70
20672;DHT22;10495;50.922;4.760;2022-07-29T15:20:30;28.10;46.00
20672;DHT22;10495;50.922;4.760;2022-07-29T15:22:56;28.20;45.40
20672;DHT22;10495;50.922;4.760;2022-07-29T15:25:23;28.30;45.40
20672;DHT22;10495;50.922;4.760;2022-07-29T15:27:48;28.10;44.80
20672;DHT22;10495;50.922;4.760;2022-07-29T15:30:14;28.50;44.60
20672;DHT22;10495;50.922;4.760;2022-07-29T15:32:42;28.80;44.30
20672;DHT22;10495;50.922;4.760;2022-07-29T15:35:08;28.50;44.30
20672;DHT22;10495;50.922;4.760;2022-07-29T15:37:36;28.50;44.50
20672;DHT22;10495;50.922;4.760;2022-07-29T15:40:03;28.30;44.40
20672;DHT22;10495;50.922;4.760;2022-07-29T15:42:28;28.50;44.80
20672;DHT22;10495;50.922;4.760;2022-07-29T15:44:54;28.40;44.50
20672;DHT22;10495;50.922;4.760;2022-07-29T15:47:21;28.30;44.20
20672;DHT22;10495;50.922;4.760;2022-07-29T15:49:46;28.10;44.50
20672;DHT22;10495;50.922;4.760;2022-07-29T15:52:12;28.00;44.80
20672;DHT22;10495;50.922;4.760;2022-07-29T15:54:38;28.00;44.40
20672;DHT22;10495;50.922;4.760;2022-07-29T15:57:05;28.10;44.60
20672;DHT22;10495;50.922;4.760;2022-07-29T15:59:32;28.20;44.60
20672;DHT22;10495;50.922;4.760;2022-07-29T16:01:58;28.30;44.60
20672;DHT22;10495;50.922;4.760;2022-07-29T16:04:25;28.40;44.60
20672;DHT22;10495;50.922;4.760;2022-07-29T16:06:50;28.30;44.50
20672;DHT22;10495;50.922;4.760;2022-07-29T16:09:16;28.20;44.70
20672;DHT22;10495;50.922;4.760;2022-07-29T16:11:42;28.10;45.00
20672;DHT22;10495;50.922;4.760;2022-07-29T16:14:09;28.00;45.50
20672;DHT22;10495;50.922;4.760;2022-07-29T16:16:36;27.90;45.40
20672;DHT22;10495;50.922;4.760;2022-07-29T16:19:02;27.90;44.90